Time;durP1;ratioP1;P1;durP2;ratioP2;P2;SDS_P1;SDS_P2;PMS_P1;PMS_P2;Temp;Humidity;BMP_temperature;BMP_pressure;BME280_temperature;BME280_humidity;BME280_pressure;Samples;Min_cycle;Max_cycle;Signal;HPM_P1;HPM_P2
2023/01/21 00:01:39;;;;;;;21.00;6.85;;;;;;;;;;5029192;28;20029;-60
2023/01/21 00:04:05;;;;;;;19.27;6.18;;;;;;;;;;5029219;28;20506;-59
2023/01/21 00:06:30;;;;;;;20.52;6.43;;;;;;;;;;5030142;28;20103;-59
2023/01/21 00:08:57;;;;;;;20.60;6.97;;;;;;;;;;5028865;28;20029;-59
2023/01/21 00:11:22;;;;;;;18.45;6.10;;;;;;;;;;5026578;28;20033;-59
2023/01/21 00:13:47;;;;;;;19.27;6.22;;;;;;;;;;5030126;28;20032;-60
2023/01/21 00:16:12;;;;;;;19.10;6.70;;;;;;;;;;5032349;28;20041;-60
2023/01/21 00:18:37;;;;;;;21.88;6.10;;;;;;;;;;5031537;28;20491;-60
2023/01/21 00:21:03;;;;;;;19.25;6.05;;;;;;;;;;5031455;28;20029;-60
2023/01/21 00:23:28;;;;;;;21.70;6.67;;;;;;;;;;5024546;28;20483;-60
2023/01/21 00:25:57;;;;;;;21.23;7.20;;;;;;;;;;5030053;28;20386;-59
2023/01/21 00:28:22;;;;;;;21.25;7.55;;;;;;;;;;5031798;28;20498;-59
2023/01/21 00:30:47;;;;;;;20.27;6.88;;;;;;;;;;5031565;28;20119;-60
2023/01/21 00:33:13;;;;;;;20.40;7.20;;;;;;;;;;5029624;28;20026;-59
2023/01/21 00:35:38;;;;;;;19.83;6.50;;;;;;;;;;5026297;28;20029;-59
2023/01/21 00:38:03;;;;;;;20.45;6.78;;;;;;;;;;5032380;28;20029;-59
2023/01/21 00:40:28;;;;;;;21.02;6.53;;;;;;;;;;5021549;28;20104;-61
2023/01/21 00:42:53;;;;;;;20.77;6.80;;;;;;;;;;5031688;28;20033;-59
2023/01/21 00:45:18;;;;;;;20.77;7.30;;;;;;;;;;5026421;28;20041;-58
2023/01/21 00:47:43;;;;;;;23.85;7.20;;;;;;;;;;5032454;28;20049;-59
2023/01/21 00:50:09;;;;;;;21.30;6.82;;;;;;;;;;5032217;28;20030;-60
2023/01/21 00:52:34;;;;;;;23.33;7.90;;;;;;;;;;5032818;28;20478;-59
2023/01/21 00:54:59;;;;;;;22.30;7.27;;;;;;;;;;5032867;28;20029;-58
2023/01/21 00:57:24;;;;;;;25.27;7.20;;;;;;;;;;5031777;28;20033;-59
2023/01/21 00:59:50;;;;;;;24.00;8.23;;;;;;;;;;5032417;28;20017;-59
2023/01/21 01:02:15;;;;;;;25.40;7.93;;;;;;;;;;5022013;28;20085;-60
2023/01/21 01:04:40;;;;;;;25.10;7.15;;;;;;;;;;5013214;28;20045;-58
2023/01/21 01:07:05;;;;;;;22.63;6.53;;;;;;;;;;5012915;28;20483;-58
2023/01/21 01:09:31;;;;;;;22.42;6.85;;;;;;;;;;5012468;28;20487;-57
2023/01/21 01:11:56;;;;;;;21.73;6.80;;;;;;;;;;5015385;28;20029;-57
2023/01/21 01:14:21;;;;;;;21.43;6.50;;;;;;;;;;5032719;28;20078;-60
2023/01/21 01:16:47;;;;;;;21.50;7.57;;;;;;;;;;5031983;28;20422;-60
2023/01/21 01:19:12;;;;;;;22.15;7.00;;;;;;;;;;5023973;28;20471;-59
2023/01/21 01:21:37;;;;;;;21.70;6.70;;;;;;;;;;5012243;28;20041;-59
2023/01/21 01:24:04;;;;;;;23.93;7.60;;;;;;;;;;5012236;28;20026;-59
2023/01/21 01:26:29;;;;;;;;;;;;;;;;;;5012157;28;20095;-60
2023/01/21 01:28:55;;;;;;;21.25;7.07;;;;;;;;;;5017004;28;19909;-57
2023/01/21 01:31:20;;;;;;;24.00;7.45;;;;;;;;;;5019363;28;20022;-58
2023/01/21 01:33:45;;;;;;;27.73;7.67;;;;;;;;;;5012621;28;20026;-58
2023/01/21 01:36:13;;;;;;;25.53;8.33;;;;;;;;;;5021199;28;20033;-60
2023/01/21 01:38:38;;;;;;;31.48;9.30;;;;;;;;;;5032080;28;20436;-59
2023/01/21 01:41:03;;;;;;;31.75;8.88;;;;;;;;;;5031376;28;20025;-57
2023/01/21 01:43:47;;;;;;;27.77;8.73;;;;;;;;;;5029869;28;20044;-58
2023/01/21 01:46:12;;;;;;;26.05;8.40;;;;;;;;;;5028259;28;20013;-57
2023/01/21 01:48:38;;;;;;;24.87;9.03;;;;;;;;;;5042779;28;20075;-59
2023/01/21 01:51:06;;;;;;;24.45;8.73;;;;;;;;;;5031875;28;20033;-59
2023/01/21 01:53:31;;;;;;;23.33;7.60;;;;;;;;;;5031482;28;20615;-60
2023/01/21 01:55:57;;;;;;;24.27;8.20;;;;;;;;;;5032202;28;20188;-57
2023/01/21 01:58:23;;;;;;;26.35;9.02;;;;;;;;;;5032142;28;20382;-58
2023/01/21 02:00:48;;;;;;;31.70;8.82;;;;;;;;;;5026300;28;20090;-59
2023/01/21 02:05:57;;;;;;;;;;;;;;;;;;5032255;28;20037;-59
2023/01/21 02:08:23;;;;;;;21.92;7.53;;;;;;;;;;5031822;28;19906;-59
2023/01/21 02:10:48;;;;;;;23.55;8.25;;;;;;;;;;5030072;28;20395;-59
2023/01/21 02:13:14;;;;;;;25.03;8.50;;;;;;;;;;5030584;28;20018;-58
2023/01/21 02:15:42;;;;;;;24.88;8.35;;;;;;;;;;5029596;28;20335;-59
2023/01/21 02:18:10;;;;;;;25.10;8.23;;;;;;;;;;5022981;28;20451;-58
2023/01/21 02:20:35;;;;;;;24.05;8.85;;;;;;;;;;5030761;28;20040;-59
2023/01/21 02:23:05;;;;;;;29.27;8.68;;;;;;;;;;5031736;28;20041;-59
2023/01/21 02:25:33;;;;;;;27.63;8.52;;;;;;;;;;5031552;28;20032;-58
2023/01/21 02:27:58;;;;;;;29.63;9.48;;;;;;;;;;5030375;28;20018;-59
2023/01/21 02:30:36;;;;;;;27.70;8.75;;;;;;;;;;5029624;28;20036;-58
2023/01/21 02:33:20;;;;;;;30.45;9.13;;;;;;;;;;5020302;28;20180;-58
2023/01/21 02:35:50;;;;;;;28.75;8.88;;;;;;;;;;5025235;28;20025;-57
2023/01/21 02:38:15;;;;;;;29.67;9.15;;;;;;;;;;5031096;28;20035;-57
2023/01/21 02:40:49;;;;;;;31.52;9.27;;;;;;;;;;5030771;28;20104;-57
2023/01/21 02:43:18;;;;;;;27.73;9.65;;;;;;;;;;5029020;28;20493;-57
2023/01/21 02:45:48;;;;;;;26.67;9.07;;;;;;;;;;5011190;28;20029;-59
2023/01/21 02:48:15;;;;;;;24.98;8.57;;;;;;;;;;5026758;28;20571;-59
2023/01/21 02:50:45;;;;;;;25.17;8.18;;;;;;;;;;5030179;28;20487;-58
2023/01/21 02:53:27;;;;;;;28.40;8.52;;;;;;;;;;5030804;28;20100;-59
2023/01/21 02:55:52;;;;;;;25.65;8.88;;;;;;;;;;5030087;28;20065;-58
2023/01/21 02:58:19;;;;;;;26.05;8.20;;;;;;;;;;5030451;28;20053;-58
2023/01/21 03:00:47;;;;;;;24.58;7.82;;;;;;;;;;5024071;28;20104;-58
2023/01/21 03:03:22;;;;;;;27.40;9.43;;;;;;;;;;5029022;28;20017;-58
2023/01/21 03:06:01;;;;;;;24.33;7.97;;;;;;;;;;5030863;28;20021;-58
2023/01/21 03:08:31;;;;;;;26.58;8.05;;;;;;;;;;5030762;28;20021;-58
2023/01/21 03:10:59;;;;;;;24.77;7.68;;;;;;;;;;5029604;28;20414;-56
2023/01/21 03:19:00;;;;;;;20.98;6.70;;;;;;;;;;5030114;28;20091;-57
2023/01/21 03:21:27;;;;;;;22.80;6.90;;;;;;;;;;5029551;28;20509;-57
2023/01/21 03:23:52;;;;;;;21.77;6.18;;;;;;;;;;5030442;28;20470;-57
2023/01/21 03:26:19;;;;;;;17.58;5.75;;;;;;;;;;5029764;28;20036;-59
2023/01/21 03:28:44;;;;;;;;;;;;;;;;;;5030456;28;20470;-59
2023/01/21 03:31:13;;;;;;;20.25;5.75;;;;;;;;;;5028463;28;20408;-58
2023/01/21 03:33:40;;;;;;;16.63;5.45;;;;;;;;;;5024366;28;20101;-60
2023/01/21 03:36:35;;;;;;;17.95;5.70;;;;;;;;;;5027200;28;20135;-58
2023/01/21 03:39:03;;;;;;;21.30;6.00;;;;;;;;;;5016869;28;20021;-59
2023/01/21 03:41:32;;;;;;;18.55;6.15;;;;;;;;;;5029708;28;20506;-57
2023/01/21 03:43:58;;;;;;;18.27;5.50;;;;;;;;;;5030533;28;20096;-59
2023/01/21 03:46:23;;;;;;;19.07;5.67;;;;;;;;;;5029131;28;20121;-59
2023/01/21 03:48:51;;;;;;;19.98;6.63;;;;;;;;;;5031469;28;20802;-58
2023/01/21 03:51:20;;;;;;;17.42;5.60;;;;;;;;;;5033700;28;20022;-59
2023/01/21 03:53:50;;;;;;;17.17;6.22;;;;;;;;;;5029424;28;20017;-59
2023/01/21 03:56:15;;;;;;;17.92;6.15;;;;;;;;;;5033351;28;20033;-56
2023/01/21 03:58:40;;;;;;;19.92;7.05;;;;;;;;;;5032370;28;20028;-59
2023/01/21 04:01:05;;;;;;;20.75;7.03;;;;;;;;;;5029888;28;20100;-59
2023/01/21 04:03:30;;;;;;;17.33;6.15;;;;;;;;;;5034354;28;20451;-59
2023/01/21 04:05:55;;;;;;;17.75;6.68;;;;;;;;;;5033756;28;20034;-59
2023/01/21 04:08:21;;;;;;;19.17;6.53;;;;;;;;;;5031277;28;20030;-58
2023/01/21 04:10:46;;;;;;;17.27;6.13;;;;;;;;;;5025967;28;20029;-57
2023/01/21 04:13:11;;;;;;;18.03;6.93;;;;;;;;;;5033538;28;20025;-58
2023/01/21 04:15:36;;;;;;;17.43;6.57;;;;;;;;;;5033534;28;20022;-58
2023/01/21 04:18:01;;;;;;;20.42;6.82;;;;;;;;;;5024597;28;20033;-58
2023/01/21 04:20:26;;;;;;;16.47;6.10;;;;;;;;;;5032946;28;20031;-58
2023/01/21 04:22:51;;;;;;;16.40;5.93;;;;;;;;;;5032863;28;20041;-59
2023/01/21 04:25:17;;;;;;;17.30;6.37;;;;;;;;;;5032147;28;20067;-59
2023/01/21 04:27:42;;;;;;;18.23;6.50;;;;;;;;;;5066405;23;20476;-63
2023/01/21 04:30:07;;;;;;;15.38;5.72;;;;;;;;;;5033274;28;20026;-63
2023/01/21 04:32:32;;;;;;;21.30;6.75;;;;;;;;;;5041566;28;20026;-62
2023/01/21 04:34:57;;;;;;;18.23;6.38;;;;;;;;;;5049920;28;20017;-62
2023/01/21 04:37:22;;;;;;;19.45;7.05;;;;;;;;;;5053176;28;20033;-62
2023/01/21 04:39:48;;;;;;;19.20;6.60;;;;;;;;;;5053236;28;20114;-63
2023/01/21 04:42:13;;;;;;;19.98;7.03;;;;;;;;;;5053725;28;20025;-61
2023/01/21 04:44:38;;;;;;;17.17;6.63;;;;;;;;;;5053622;28;20504;-61
2023/01/21 04:47:03;;;;;;;20.98;7.38;;;;;;;;;;5053148;28;20096;-62
2023/01/21 04:49:28;;;;;;;18.65;6.88;;;;;;;;;;5053563;28;20017;-60
2023/01/21 04:51:53;;;;;;;20.45;7.35;;;;;;;;;;5051910;28;20434;-62
2023/01/21 04:54:18;;;;;;;18.87;6.70;;;;;;;;;;5053501;28;20025;-63
2023/01/21 04:56:44;;;;;;;20.58;7.55;;;;;;;;;;5053490;28;20057;-63
2023/01/21 04:59:09;;;;;;;18.35;6.80;;;;;;;;;;5052275;28;20385;-63
2023/01/21 05:01:34;;;;;;;22.50;7.13;;;;;;;;;;5051915;28;20069;-63
2023/01/21 05:03:59;;;;;;;21.33;7.30;;;;;;;;;;5053193;28;20020;-61
2023/01/21 05:06:25;;;;;;;20.60;7.25;;;;;;;;;;5052114;28;20041;-62
2023/01/21 05:08:50;;;;;;;21.38;7.45;;;;;;;;;;5053222;28;20424;-61
2023/01/21 05:11:16;;;;;;;19.90;7.28;;;;;;;;;;5052474;28;20028;-62
2023/01/21 05:13:42;;;;;;;19.67;7.70;;;;;;;;;;5051870;28;20628;-62
2023/01/21 05:16:08;;;;;;;18.65;6.75;;;;;;;;;;5051841;28;20128;-61
2023/01/21 05:18:34;;;;;;;17.45;5.88;;;;;;;;;;5053133;28;20032;-61
2023/01/21 05:20:59;;;;;;;16.88;6.32;;;;;;;;;;5050797;28;20107;-62
2023/01/21 05:23:24;;;;;;;14.45;6.25;;;;;;;;;;5052462;28;20025;-65
2023/01/21 05:25:49;;;;;;;15.68;5.85;;;;;;;;;;5052681;28;20067;-63
2023/01/21 05:28:15;;;;;;;17.93;6.37;;;;;;;;;;5052458;28;20037;-61
2023/01/21 05:30:40;;;;;;;15.77;5.65;;;;;;;;;;5051115;28;20036;-63
2023/01/21 05:33:05;;;;;;;18.23;6.72;;;;;;;;;;5051308;28;20485;-63
2023/01/21 05:35:33;;;;;;;15.50;5.73;;;;;;;;;;5049386;28;20021;-63
2023/01/21 05:37:58;;;;;;;17.55;6.03;;;;;;;;;;5052596;28;20370;-62
2023/01/21 05:40:23;;;;;;;16.35;6.28;;;;;;;;;;5052024;28;20019;-63
2023/01/21 05:42:48;;;;;;;17.43;6.53;;;;;;;;;;5052457;28;20025;-62
2023/01/21 05:45:13;;;;;;;18.60;6.28;;;;;;;;;;5052821;28;20466;-61
2023/01/21 05:47:38;;;;;;;18.97;6.93;;;;;;;;;;5051736;28;20473;-63
2023/01/21 05:50:04;;;;;;;17.75;6.15;;;;;;;;;;5050112;28;20036;-62
2023/01/21 05:52:29;;;;;;;20.05;6.20;;;;;;;;;;5052018;28;20154;-61
2023/01/21 05:54:54;;;;;;;17.65;6.25;;;;;;;;;;5052295;28;20021;-63
2023/01/21 05:57:19;;;;;;;17.27;6.75;;;;;;;;;;5052219;28;20044;-62
2023/01/21 05:59:44;;;;;;;22.03;6.47;;;;;;;;;;5050381;28;20575;-62
2023/01/21 06:02:10;;;;;;;21.42;6.85;;;;;;;;;;5049341;28;20005;-62
2023/01/21 06:04:35;;;;;;;23.42;7.13;;;;;;;;;;5044401;28;20020;-63
2023/01/21 06:07:00;;;;;;;23.02;7.65;;;;;;;;;;5045032;28;20659;-62
2023/01/21 06:09:25;;;;;;;23.27;7.47;;;;;;;;;;5041818;28;20028;-62
2023/01/21 06:11:50;;;;;;;24.77;6.95;;;;;;;;;;5050752;28;20481;-62
2023/01/21 06:14:15;;;;;;;24.97;7.40;;;;;;;;;;5050773;28;20021;-62
2023/01/21 06:16:40;;;;;;;26.73;7.85;;;;;;;;;;5049789;28;20096;-61
2023/01/21 06:19:06;;;;;;;31.45;8.63;;;;;;;;;;5046958;28;20428;-62
2023/01/21 06:21:31;;;;;;;25.57;8.33;;;;;;;;;;5040199;28;20025;-62
2023/01/21 06:23:56;;;;;;;24.93;7.27;;;;;;;;;;5051458;28;20017;-62
2023/01/21 06:26:21;;;;;;;28.23;7.93;;;;;;;;;;5049711;28;20033;-62
2023/01/21 06:28:46;;;;;;;28.13;8.07;;;;;;;;;;5051699;28;20020;-62
2023/01/21 06:31:11;;;;;;;23.35;7.45;;;;;;;;;;5050337;28;20025;-62
2023/01/21 06:33:36;;;;;;;26.40;7.82;;;;;;;;;;5064384;28;20373;-62
2023/01/21 06:36:02;;;;;;;29.60;8.65;;;;;;;;;;5071391;28;20060;-63
2023/01/21 06:38:27;;;;;;;25.87;7.60;;;;;;;;;;5059461;28;20031;-62
2023/01/21 06:40:52;;;;;;;25.40;7.60;;;;;;;;;;5050481;28;20116;-60
2023/01/21 06:43:17;;;;;;;24.50;7.55;;;;;;;;;;5048170;28;20064;-61
2023/01/21 06:45:43;;;;;;;22.90;7.07;;;;;;;;;;5049663;28;20671;-60
2023/01/21 06:48:08;;;;;;;25.95;7.63;;;;;;;;;;5047366;28;20028;-60
2023/01/21 06:50:33;;;;;;;27.10;7.90;;;;;;;;;;5048515;28;20039;-59
2023/01/21 06:52:58;;;;;;;23.03;6.93;;;;;;;;;;5051398;28;20504;-60
2023/01/21 06:55:23;;;;;;;20.70;6.63;;;;;;;;;;5046848;28;20025;-62
2023/01/21 06:57:48;;;;;;;21.65;6.68;;;;;;;;;;5047712;28;20037;-62
2023/01/21 07:00:14;;;;;;;19.90;6.60;;;;;;;;;;5048751;28;20025;-61
2023/01/21 07:02:39;;;;;;;23.53;6.77;;;;;;;;;;5049013;28;20033;-60
2023/01/21 07:05:05;;;;;;;21.07;6.90;;;;;;;;;;5050405;28;20454;-62
2023/01/21 07:07:30;;;;;;;22.17;6.57;;;;;;;;;;5051058;28;20375;-63
2023/01/21 07:09:55;;;;;;;18.90;6.43;;;;;;;;;;5049669;28;20017;-62
2023/01/21 07:12:20;;;;;;;22.17;6.27;;;;;;;;;;5052324;28;20895;-61
2023/01/21 07:14:45;;;;;;;18.60;6.37;;;;;;;;;;5059166;28;20037;-62
2023/01/21 07:17:11;;;;;;;20.60;6.75;;;;;;;;;;5044603;28;20501;-61
2023/01/21 07:19:36;;;;;;;18.00;6.43;;;;;;;;;;5049222;28;20482;-62
2023/01/21 07:22:01;;;;;;;17.47;6.03;;;;;;;;;;5049766;28;21104;-63
2023/01/21 07:24:26;;;;;;;16.38;5.65;;;;;;;;;;5049999;28;20035;-62
2023/01/21 07:26:51;;;;;;;20.70;7.43;;;;;;;;;;5055751;28;20025;-62
2023/01/21 07:29:16;;;;;;;17.48;5.97;;;;;;;;;;5041871;28;20013;-63
2023/01/21 07:31:42;;;;;;;18.50;6.57;;;;;;;;;;5043267;28;20057;-62
2023/01/21 07:34:07;;;;;;;19.67;6.67;;;;;;;;;;5049765;28;20043;-60
2023/01/21 07:36:32;;;;;;;22.98;6.60;;;;;;;;;;5051954;28;20087;-61
2023/01/21 07:38:57;;;;;;;20.35;6.75;;;;;;;;;;5055830;28;20465;-62
2023/01/21 07:41:22;;;;;;;20.87;7.57;;;;;;;;;;5045457;28;20048;-61
2023/01/21 07:43:48;;;;;;;24.20;7.73;;;;;;;;;;5038574;28;20033;-62
2023/01/21 07:46:17;;;;;;;20.73;7.63;;;;;;;;;;5045128;28;20025;-63
2023/01/21 07:48:42;;;;;;;22.70;6.90;;;;;;;;;;5041672;28;20312;-61
2023/01/21 07:51:07;;;;;;;18.02;6.75;;;;;;;;;;5047597;28;20478;-61
2023/01/21 07:53:33;;;;;;;18.67;6.60;;;;;;;;;;5048972;28;20060;-61
2023/01/21 07:56:01;;;;;;;17.97;6.47;;;;;;;;;;5049912;28;20912;-63
2023/01/21 07:58:27;;;;;;;20.63;7.00;;;;;;;;;;5045750;28;20025;-63
2023/01/21 08:00:52;;;;;;;18.85;6.78;;;;;;;;;;5042565;28;20076;-63
2023/01/21 08:03:20;;;;;;;21.80;8.23;;;;;;;;;;5048664;28;20426;-62
2023/01/21 08:05:45;;;;;;;20.77;7.07;;;;;;;;;;5049919;28;20029;-61
2023/01/21 08:08:10;;;;;;;20.93;7.00;;;;;;;;;;5050017;28;20024;-61
2023/01/21 08:10:36;;;;;;;21.45;7.65;;;;;;;;;;5048525;28;20112;-63
2023/01/21 08:13:02;;;;;;;19.40;7.18;;;;;;;;;;5043482;28;20047;-62
2023/01/21 08:15:27;;;;;;;20.05;7.13;;;;;;;;;;5045050;28;20060;-63
2023/01/21 08:17:52;;;;;;;21.23;7.10;;;;;;;;;;5046647;28;20500;-62
2023/01/21 08:20:18;;;;;;;20.87;7.70;;;;;;;;;;5049450;28;20025;-63
2023/01/21 08:22:43;;;;;;;17.37;6.77;;;;;;;;;;5043790;28;20082;-62
2023/01/21 08:25:08;;;;;;;19.98;7.32;;;;;;;;;;5061430;28;20020;-61
2023/01/21 08:27:33;;;;;;;18.40;6.93;;;;;;;;;;5050448;28;20105;-64
2023/01/21 08:29:58;;;;;;;17.60;7.03;;;;;;;;;;5041367;28;20024;-62
2023/01/21 08:32:23;;;;;;;20.75;7.25;;;;;;;;;;5047152;28;20438;-63
2023/01/21 08:34:49;;;;;;;18.90;6.90;;;;;;;;;;5045481;28;20025;-63
2023/01/21 08:37:14;;;;;;;21.42;7.80;;;;;;;;;;5052783;28;20140;-63
2023/01/21 08:39:40;;;;;;;19.10;7.03;;;;;;;;;;5053597;28;20017;-63
2023/01/21 08:42:05;;;;;;;21.77;8.17;;;;;;;;;;5045804;28;20021;-62
2023/01/21 08:44:30;;;;;;;22.30;6.63;;;;;;;;;;5053275;28;20039;-62
2023/01/21 08:46:55;;;;;;;19.95;7.60;;;;;;;;;;5053082;28;20303;-62
2023/01/21 08:49:21;;;;;;;19.15;7.63;;;;;;;;;;5053657;28;20153;-62
2023/01/21 08:51:46;;;;;;;20.70;7.55;;;;;;;;;;5049881;28;20025;-62
2023/01/21 08:54:12;;;;;;;20.40;6.93;;;;;;;;;;5051545;28;20016;-63
2023/01/21 08:56:37;;;;;;;19.97;7.73;;;;;;;;;;5046354;28;21390;-62
2023/01/21 08:59:02;;;;;;;15.55;6.72;;;;;;;;;;5051976;28;20021;-62
2023/01/21 09:01:28;;;;;;;17.50;7.00;;;;;;;;;;5049700;28;20116;-64
2023/01/21 09:03:57;;;;;;;19.60;7.15;;;;;;;;;;5046810;28;20029;-64
2023/01/21 09:06:23;;;;;;;20.13;7.57;;;;;;;;;;5054003;28;20029;-63
2023/01/21 09:08:48;;;;;;;22.25;8.02;;;;;;;;;;5053411;28;20075;-63
2023/01/21 09:11:15;;;;;;;18.43;7.17;;;;;;;;;;5050810;28;20028;-62
2023/01/21 09:13:41;;;;;;;20.50;8.20;;;;;;;;;;5053155;28;20031;-63
2023/01/21 09:16:11;;;;;;;20.60;7.97;;;;;;;;;;5053152;28;20056;-63
2023/01/21 09:18:36;;;;;;;20.83;8.15;;;;;;;;;;5051833;28;20043;-63
2023/01/21 09:21:02;;;;;;;24.40;7.67;;;;;;;;;;5051327;28;20541;-63
2023/01/21 09:23:31;;;;;;;20.67;7.85;;;;;;;;;;5052314;28;20036;-64
2023/01/21 09:26:04;;;;;;;19.77;7.32;;;;;;;;;;5052273;28;20017;-65
2023/01/21 09:28:30;;;;;;;19.85;6.88;;;;;;;;;;5048521;28;20131;-62
2023/01/21 09:30:56;;;;;;;20.08;8.05;;;;;;;;;;5043538;28;20036;-63
2023/01/21 09:33:21;;;;;;;20.90;7.40;;;;;;;;;;5044260;28;20032;-64
2023/01/21 09:35:51;;;;;;;19.03;7.23;;;;;;;;;;5045084;28;20427;-64
2023/01/21 09:38:16;;;;;;;18.55;7.35;;;;;;;;;;5049409;28;20025;-64
2023/01/21 09:40:44;;;;;;;19.95;7.43;;;;;;;;;;5044358;28;20032;-62
2023/01/21 09:43:12;;;;;;;18.38;7.88;;;;;;;;;;5050887;28;20025;-64
2023/01/21 09:45:38;;;;;;;18.77;7.53;;;;;;;;;;5052204;28;20055;-64
2023/01/21 09:48:05;;;;;;;24.08;7.88;;;;;;;;;;5047668;28;20032;-64
2023/01/21 09:50:31;;;;;;;19.95;7.18;;;;;;;;;;5047547;28;20025;-64
2023/01/21 09:53:03;;;;;;;21.65;7.40;;;;;;;;;;5043769;28;20092;-64
2023/01/21 09:55:35;;;;;;;18.65;6.88;;;;;;;;;;5040015;28;20021;-64
2023/01/21 09:58:07;;;;;;;21.27;7.78;;;;;;;;;;5051857;28;20028;-62
2023/01/21 10:00:40;;;;;;;19.65;7.35;;;;;;;;;;5040941;28;20021;-64
2023/01/21 10:03:15;;;;;;;17.55;7.05;;;;;;;;;;5041054;28;20035;-63
2023/01/21 10:05:59;;;;;;;20.67;7.97;;;;;;;;;;5050719;28;20127;-63
2023/01/21 10:08:30;;;;;;;19.60;8.07;;;;;;;;;;5049319;28;20025;-63
2023/01/21 10:10:55;;;;;;;19.33;6.72;;;;;;;;;;5045891;28;20024;-64
2023/01/21 10:13:33;;;;;;;21.27;7.63;;;;;;;;;;5037393;28;20017;-63
2023/01/21 10:16:10;;;;;;;22.05;7.55;;;;;;;;;;5044083;28;20025;-64
2023/01/21 10:18:37;;;;;;;18.50;7.13;;;;;;;;;;5043389;28;20028;-64
2023/01/21 10:21:11;;;;;;;21.42;7.28;;;;;;;;;;5044985;28;20021;-64
2023/01/21 10:23:42;;;;;;;17.30;6.82;;;;;;;;;;5044810;28;20025;-64
2023/01/21 10:26:09;;;;;;;19.85;7.15;;;;;;;;;;5071942;22;20001;-59
2023/01/21 10:28:37;;;;;;;18.40;7.10;;;;;;;;;;5030316;28;20436;-58
2023/01/21 10:31:22;;;;;;;20.80;7.72;;;;;;;;;;5014923;28;20024;-60
2023/01/21 10:33:48;;;;;;;17.45;6.70;;;;;;;;;;5008166;28;20109;-59
2023/01/21 10:36:32;;;;;;;19.75;7.40;;;;;;;;;;5002034;28;20125;-61
2023/01/21 10:39:03;;;;;;;21.33;7.45;;;;;;;;;;5011257;28;20066;-61
2023/01/21 10:41:43;;;;;;;23.50;7.55;;;;;;;;;;5010488;28;20466;-59
2023/01/21 10:44:21;;;;;;;17.55;7.22;;;;;;;;;;5009555;28;20037;-59
2023/01/21 10:47:04;;;;;;;17.50;7.43;;;;;;;;;;5010309;28;20092;-59
2023/01/21 10:49:44;;;;;;;22.17;7.25;;;;;;;;;;5007729;28;20022;-59
2023/01/21 10:52:15;;;;;;;17.80;6.97;;;;;;;;;;5004546;28;20018;-59
2023/01/21 10:54:52;;;;;;;18.00;6.43;;;;;;;;;;5004379;28;20035;-58
2023/01/21 10:57:26;;;;;;;17.35;7.57;;;;;;;;;;5020373;28;20056;-59
2023/01/21 10:59:52;;;;;;;19.45;7.50;;;;;;;;;;5008146;28;20048;-59
2023/01/21 11:02:21;;;;;;;16.20;6.53;;;;;;;;;;5010964;28;20659;-59
2023/01/21 11:04:46;;;;;;;15.85;6.32;;;;;;;;;;4997075;28;20033;-59
2023/01/21 11:07:12;;;;;;;18.25;7.18;;;;;;;;;;4999139;28;20021;-59
2023/01/21 11:09:39;;;;;;;17.33;6.78;;;;;;;;;;5008292;28;20021;-59
2023/01/21 11:12:04;;;;;;;18.00;7.43;;;;;;;;;;5013921;28;20530;-59
2023/01/21 11:14:29;;;;;;;15.37;6.20;;;;;;;;;;5007650;28;20105;-59
2023/01/21 11:16:54;;;;;;;15.07;6.63;;;;;;;;;;5007113;28;20476;-59
2023/01/21 11:19:25;;;;;;;16.37;6.73;;;;;;;;;;5002877;28;20029;-59
2023/01/21 11:22:04;;;;;;;15.48;7.15;;;;;;;;;;5007881;28;20032;-60
2023/01/21 11:24:31;;;;;;;17.52;7.50;;;;;;;;;;5006860;28;20022;-59
2023/01/21 11:26:58;;;;;;;18.60;7.35;;;;;;;;;;5003488;28;20768;-59
2023/01/21 11:29:23;;;;;;;15.50;6.45;;;;;;;;;;5009578;28;20133;-60
2023/01/21 11:32:00;;;;;;;16.33;6.60;;;;;;;;;;5010172;28;20108;-59
2023/01/21 11:34:25;;;;;;;18.42;6.97;;;;;;;;;;5008475;28;20459;-59
2023/01/21 11:37:01;;;;;;;17.77;6.87;;;;;;;;;;5008986;28;20056;-60
2023/01/21 11:39:28;;;;;;;16.05;6.78;;;;;;;;;;5008329;28;20714;-59
2023/01/21 11:41:55;;;;;;;17.25;6.68;;;;;;;;;;5006570;28;20030;-59
2023/01/21 11:44:20;;;;;;;;;;;;;;;;;;5010764;28;20018;-60
2023/01/21 11:46:46;;;;;;;19.45;6.68;;;;;;;;;;5003764;28;19917;-59
2023/01/21 11:49:14;;;;;;;17.60;7.50;;;;;;;;;;5008937;28;20459;-59
2023/01/21 11:51:39;;;;;;;13.98;6.47;;;;;;;;;;5006166;28;20465;-59
2023/01/21 11:54:05;;;;;;;18.45;7.35;;;;;;;;;;5009742;28;20026;-60
2023/01/21 11:56:30;;;;;;;18.65;7.32;;;;;;;;;;5001657;28;20048;-59
2023/01/21 11:58:56;;;;;;;17.67;7.30;;;;;;;;;;5007722;28;20431;-60
2023/01/21 12:01:21;;;;;;;15.80;7.13;;;;;;;;;;5004604;28;20145;-60
2023/01/21 12:03:46;;;;;;;18.55;7.55;;;;;;;;;;5006101;28;20457;-60
2023/01/21 12:06:29;;;;;;;16.63;7.20;;;;;;;;;;5008414;28;20030;-60
2023/01/21 12:08:56;;;;;;;16.52;6.90;;;;;;;;;;5009965;28;20108;-60
2023/01/21 12:11:23;;;;;;;17.80;7.50;;;;;;;;;;5009136;28;20032;-60
2023/01/21 12:14:01;;;;;;;18.88;7.43;;;;;;;;;;5011734;28;20025;-59
2023/01/21 12:16:30;;;;;;;16.85;7.10;;;;;;;;;;5010689;28;20044;-60
2023/01/21 12:19:06;;;;;;;15.32;6.75;;;;;;;;;;5007505;28;20022;-58
2023/01/21 12:21:34;;;;;;;14.68;6.38;;;;;;;;;;5006280;28;20566;-60
2023/01/21 12:24:08;;;;;;;16.42;6.47;;;;;;;;;;5010753;28;20100;-59
2023/01/21 12:26:44;;;;;;;15.13;6.47;;;;;;;;;;5012993;28;20033;-60
2023/01/21 12:29:27;;;;;;;14.45;6.15;;;;;;;;;;5004452;28;20089;-59
2023/01/21 12:31:56;;;;;;;17.02;6.57;;;;;;;;;;5012093;28;20018;-58
2023/01/21 12:34:32;;;;;;;14.40;6.30;;;;;;;;;;5008373;28;20036;-57
2023/01/21 12:37:16;;;;;;;18.52;7.25;;;;;;;;;;5009804;28;20466;-59
2023/01/21 12:39:42;;;;;;;19.45;6.57;;;;;;;;;;5005691;28;20517;-58
2023/01/21 12:42:20;;;;;;;16.05;6.45;;;;;;;;;;5007838;28;20021;-58
2023/01/21 12:44:45;;;;;;;16.55;7.15;;;;;;;;;;4999678;28;20416;-58
2023/01/21 12:47:16;;;;;;;16.50;6.50;;;;;;;;;;5004568;28;20459;-60
2023/01/21 12:49:50;;;;;;;16.08;6.80;;;;;;;;;;5007365;28;20052;-60
2023/01/21 12:52:23;;;;;;;16.15;7.60;;;;;;;;;;5009458;28;20056;-60
2023/01/21 12:54:56;;;;;;;16.77;6.15;;;;;;;;;;5008291;28;20040;-58
2023/01/21 12:57:27;;;;;;;16.08;7.10;;;;;;;;;;5009509;28;20073;-58
2023/01/21 13:00:00;;;;;;;18.52;6.88;;;;;;;;;;5006415;28;20030;-58
2023/01/21 13:02:33;;;;;;;17.20;6.97;;;;;;;;;;5006315;28;20029;-59
2023/01/21 13:05:01;;;;;;;17.10;6.93;;;;;;;;;;5005271;28;20729;-59
2023/01/21 13:07:44;;;;;;;15.60;6.00;;;;;;;;;;5008077;28;20498;-60
2023/01/21 13:10:27;;;;;;;16.67;6.75;;;;;;;;;;5007032;28;20109;-60
2023/01/21 13:13:05;;;;;;;15.68;6.75;;;;;;;;;;5005064;28;20129;-59
2023/01/21 13:15:31;;;;;;;16.23;6.45;;;;;;;;;;5010252;28;20017;-59
2023/01/21 13:17:58;;;;;;;17.27;6.85;;;;;;;;;;5008365;28;20041;-59
2023/01/21 13:20:24;;;;;;;16.58;7.72;;;;;;;;;;5005320;28;20102;-59
2023/01/21 13:23:08;;;;;;;16.95;7.13;;;;;;;;;;5003516;28;20113;-59
2023/01/21 13:25:55;;;;;;;15.90;7.00;;;;;;;;;;5001874;28;20270;-58
2023/01/21 13:28:23;;;;;;;16.05;6.55;;;;;;;;;;5005977;28;20041;-58
2023/01/21 13:30:53;;;;;;;15.48;6.97;;;;;;;;;;5003071;28;20588;-59
2023/01/21 13:33:22;;;;;;;17.60;7.50;;;;;;;;;;5006211;28;20112;-58
2023/01/21 13:36:03;;;;;;;17.52;7.43;;;;;;;;;;5008003;28;20109;-58
2023/01/21 13:38:41;;;;;;;15.80;6.57;;;;;;;;;;5000816;28;20034;-58
2023/01/21 13:41:20;;;;;;;16.88;7.20;;;;;;;;;;5002001;28;20037;-58
2023/01/21 13:43:53;;;;;;;18.63;7.45;;;;;;;;;;5001835;28;20352;-58
2023/01/21 13:46:36;;;;;;;17.52;6.53;;;;;;;;;;5005877;28;20038;-58
2023/01/21 13:49:08;;;;;;;15.93;6.68;;;;;;;;;;5004941;28;20025;-58
2023/01/21 13:51:37;;;;;;;15.90;6.38;;;;;;;;;;5001627;28;20072;-59
2023/01/21 13:54:21;;;;;;;16.35;6.90;;;;;;;;;;5004142;28;20088;-58
2023/01/21 13:57:01;;;;;;;15.70;7.22;;;;;;;;;;5004782;28;20037;-58
2023/01/21 13:59:56;;;;;;;16.05;6.82;;;;;;;;;;5006777;28;20032;-59
2023/01/21 14:02:24;;;;;;;19.13;7.38;;;;;;;;;;4981917;28;20088;-59
2023/01/21 14:04:56;;;;;;;16.95;6.93;;;;;;;;;;5008735;28;20029;-59
2023/01/21 14:07:28;;;;;;;18.30;7.60;;;;;;;;;;5005374;28;20036;-61
2023/01/21 14:10:09;;;;;;;19.08;7.68;;;;;;;;;;5006146;28;20084;-60
2023/01/21 14:12:53;;;;;;;16.67;6.97;;;;;;;;;;5006246;28;20014;-58
2023/01/21 14:15:40;;;;;;;15.85;6.80;;;;;;;;;;5004489;28;20041;-57
2023/01/21 14:18:12;;;;;;;17.98;7.30;;;;;;;;;;5005965;28;20674;-58
2023/01/21 14:20:45;;;;;;;18.33;7.22;;;;;;;;;;5007545;28;20076;-59
2023/01/21 14:23:29;;;;;;;17.00;6.88;;;;;;;;;;5003956;28;20029;-58
2023/01/21 14:25:57;;;;;;;16.27;6.40;;;;;;;;;;5003354;28;20025;-58
2023/01/21 14:28:28;;;;;;;15.88;6.85;;;;;;;;;;5007325;28;20026;-58
2023/01/21 14:31:03;;;;;;;16.55;6.70;;;;;;;;;;5006274;28;20479;-58
2023/01/21 14:33:34;;;;;;;17.05;7.05;;;;;;;;;;5004682;28;20415;-58
2023/01/21 14:36:06;;;;;;;16.40;6.88;;;;;;;;;;5007645;28;20105;-58
2023/01/21 14:38:49;;;;;;;14.95;6.45;;;;;;;;;;4996784;28;20029;-60
2023/01/21 14:41:14;;;;;;;15.23;6.63;;;;;;;;;;5008847;28;20018;-58
2023/01/21 14:43:39;;;;;;;16.13;6.43;;;;;;;;;;5008515;28;20037;-58
2023/01/21 14:46:22;;;;;;;18.02;6.68;;;;;;;;;;5008895;28;20627;-59